Time;durP1;ratioP1;P1;durP2;ratioP2;P2;SDS_P1;SDS_P2;PMS_P1;PMS_P2;Temp;Humidity;BMP_temperature;BMP_pressure;BME280_temperature;BME280_humidity;BME280_pressure;Samples;Min_cycle;Max_cycle;Signal;HPM_P1;HPM_P2
2024/02/21 00:00:59;;;;;;;22.90;12.25;;;;;;;29.19;75.30;101073.41;5052727;28;70948;-31
2024/02/21 00:03:30;;;;;;;21.85;13.30;;;;;;;29.25;75.48;101078.00;5042906;28;66011;-31
2024/02/21 00:06:00;;;;;;;15.55;11.60;;;;;;;29.27;76.29;101081.34;5046687;28;68446;-31
2024/02/21 00:08:30;;;;;;;19.77;12.45;;;;;;;29.31;75.69;101084.44;5046137;28;66454;-31
2024/02/21 00:11:01;;;;;;;18.75;11.65;;;;;;;29.33;75.93;101085.09;5041056;28;69880;-31
2024/02/21 00:13:32;;;;;;;21.20;11.32;;;;;;;29.38;75.95;101083.44;5040412;28;66600;-31
2024/02/21 00:16:03;;;;;;;14.63;11.48;;;;;;;29.42;76.91;101091.13;5048383;28;70259;-30
2024/02/21 00:18:33;;;;;;;12.75;10.60;;;;;;;29.47;77.64;101096.75;5045716;28;66735;-31
2024/02/21 00:21:04;;;;;;;16.30;10.77;;;;;;;29.49;78.26;101095.50;5050042;28;69599;-31
2024/02/21 00:23:34;;;;;;;20.52;10.82;;;;;;;29.53;78.13;101098.63;5045124;28;66000;-30
2024/02/21 00:26:05;;;;;;;15.85;10.55;;;;;;;29.53;78.65;101106.72;5041555;28;70567;-31
2024/02/21 00:28:36;;;;;;;14.63;11.03;;;;;;;29.57;79.44;101114.25;5045013;28;66034;-33
2024/02/21 00:31:06;;;;;;;12.85;11.02;;;;;;;29.61;79.84;101114.66;5045379;28;70297;-31
2024/02/21 00:33:36;;;;;;;18.63;10.70;;;;;;;29.68;78.97;101120.94;5050375;28;66479;-32
2024/02/21 00:36:07;;;;;;;14.93;11.45;;;;;;;29.56;79.92;101100.91;5039253;28;70287;-31
2024/02/21 00:38:37;;;;;;;11.85;10.60;;;;;;;29.71;80.24;101128.63;5045710;28;66547;-32
2024/02/21 00:41:07;;;;;;;12.38;11.15;;;;;;;29.71;80.03;101128.63;5051776;28;70317;-33
2024/02/21 00:43:38;;;;;;;12.52;11.07;;;;;;;29.73;79.83;101129.28;5039605;28;65854;-35
2024/02/21 00:46:09;;;;;;;11.82;10.65;;;;;;;29.77;80.30;101141.31;5044293;28;70515;-33
2024/02/21 00:48:39;;;;;;;12.57;10.30;;;;;;;29.75;81.00;101137.16;5051929;28;66545;-32
2024/02/21 00:51:10;;;;;;;10.88;9.60;;;;;;;29.83;80.03;101137.78;5053273;28;70615;-32
2024/02/21 00:53:40;;;;;;;13.18;10.30;;;;;;;29.81;80.62;101139.03;5043768;28;65567;-31
2024/02/21 00:56:10;;;;;;;10.68;9.63;;;;;;;29.81;80.95;101144.44;5048883;28;69652;-31
2024/02/21 00:58:41;;;;;;;10.73;9.73;;;;;;;29.87;80.67;101150.91;5044376;28;66391;-31
2024/02/21 01:01:11;;;;;;;9.48;8.75;;;;;;;29.87;80.70;101157.16;5048375;28;70900;-31
2024/02/21 01:03:42;;;;;;;9.85;8.88;;;;;;;29.90;81.03;101155.91;5046144;28;66811;-31
2024/02/21 01:06:12;;;;;;;10.57;8.55;;;;;;;29.91;80.65;101165.69;5052426;28;70843;-31
2024/02/21 01:08:43;;;;;;;10.93;8.80;;;;;;;29.94;80.52;101162.56;5043051;28;65761;-31
2024/02/21 01:11:14;;;;;;;9.77;8.30;;;;;;;29.94;80.50;101167.97;5049463;28;69344;-30
2024/02/21 01:13:45;;;;;;;9.00;7.90;;;;;;;29.93;80.82;101166.31;5045608;28;65650;-32
2024/02/21 01:16:15;;;;;;;8.30;7.70;;;;;;;29.84;80.56;101153.00;5050105;28;70066;-32
2024/02/21 01:18:46;;;;;;;9.25;8.07;;;;;;;30.01;79.76;101176.94;5047171;28;66595;-30
2024/02/21 01:21:17;;;;;;;8.00;7.30;;;;;;;30.03;80.30;101182.94;5043789;28;70191;-31
2024/02/21 01:23:47;;;;;;;8.25;7.55;;;;;;;30.03;79.77;101188.34;5051567;28;66108;-30
2024/02/21 01:26:18;;;;;;;8.10;7.40;;;;;;;30.05;79.35;101194.41;5028154;28;68927;-31
2024/02/21 01:28:48;;;;;;;8.10;7.40;;;;;;;30.03;79.45;101191.06;5051523;28;66552;-31
2024/02/21 01:31:19;;;;;;;10.45;7.97;;;;;;;30.06;79.53;101198.75;5049578;28;70637;-30
2024/02/21 01:33:49;;;;;;;7.30;6.85;;;;;;;30.03;79.51;101194.63;5048573;28;66226;-31
2024/02/21 01:36:19;;;;;;;7.90;7.18;;;;;;;30.10;78.84;101205.44;5051750;28;69710;-31
2024/02/21 01:38:50;;;;;;;8.30;7.55;;;;;;;30.13;79.23;101205.00;5053823;28;66498;-32
2024/02/21 01:41:20;;;;;;;7.63;7.10;;;;;;;30.12;78.87;101214.19;5050935;28;69777;-30
2024/02/21 01:43:51;;;;;;;7.30;6.55;;;;;;;30.14;78.68;101222.91;5055361;28;67052;-31
2024/02/21 01:46:27;;;;;;;7.43;6.60;;;;;;;30.17;78.25;101221.66;5051734;28;70050;-31
2024/02/21 01:48:58;;;;;;;7.78;7.00;;;;;;;30.18;78.57;101229.59;5050955;28;66573;-32
2024/02/21 01:51:30;;;;;;;10.40;7.03;;;;;;;30.19;78.77;101225.81;5053121;28;69916;-31
2024/02/21 01:54:01;;;;;;;7.97;7.35;;;;;;;30.21;78.44;101240.00;5043941;28;65992;-31
2024/02/21 01:56:32;;;;;;;7.45;6.80;;;;;;;30.24;77.88;101239.59;5043711;28;70200;-31
2024/02/21 01:59:02;;;;;;;8.07;7.30;;;;;;;30.26;78.36;101242.94;5044675;28;65748;-32
2024/02/21 02:01:33;;;;;;;7.95;7.25;;;;;;;30.28;77.97;101240.88;5054044;28;70266;-31
2024/02/21 02:04:05;;;;;;;7.55;7.05;;;;;;;30.31;77.63;101245.00;5056054;28;65623;-31
2024/02/21 02:06:35;;;;;;;7.35;6.75;;;;;;;30.28;77.85;101240.00;5061847;28;69882;-32
2024/02/21 02:09:06;;;;;;;7.65;7.10;;;;;;;30.35;77.94;101250.84;5046620;28;66588;-31
2024/02/21 02:11:37;;;;;;;8.90;7.30;;;;;;;30.34;77.37;101251.88;5050496;28;70382;-31
2024/02/21 02:14:07;;;;;;;8.25;7.18;;;;;;;30.40;77.69;101253.78;5047103;28;66262;-32
2024/02/21 02:16:38;;;;;;;7.63;7.13;;;;;;;30.26;77.36;101237.53;5053262;28;69187;-30
2024/02/21 02:19:12;;;;;;;6.75;6.25;;;;;;;30.42;76.89;101265.22;5047572;28;66373;-31
2024/02/21 02:21:56;;;;;;;7.32;6.72;;;;;;;30.28;77.27;101245.41;5055034;28;70071;-31
2024/02/21 02:24:26;;;;;;;7.68;7.07;;;;;;;30.47;77.33;101268.13;5055415;28;65698;-34
2024/02/21 02:26:57;;;;;;;6.53;6.03;;;;;;;30.50;76.70;101270.41;5055073;28;69598;-33
2024/02/21 02:29:27;;;;;;;6.97;6.30;;;;;;;30.53;76.57;101275.41;5052643;28;66848;-31
2024/02/21 02:31:58;;;;;;;7.00;6.38;;;;;;;30.53;76.99;101270.00;5053835;28;69916;-32
2024/02/21 02:34:28;;;;;;;7.32;6.63;;;;;;;30.58;76.35;101281.03;5054281;28;65617;-32
2024/02/21 02:36:59;;;;;;;6.85;6.15;;;;;;;30.60;76.70;101276.25;5049929;28;69486;-32
2024/02/21 02:39:29;;;;;;;7.60;7.10;;;;;;;30.59;76.36;101269.19;5060768;28;66140;-32
2024/02/21 02:42:00;;;;;;;7.80;7.07;;;;;;;30.63;76.24;101283.94;5047982;28;70229;-31
2024/02/21 02:44:31;;;;;;;6.70;6.13;;;;;;;30.67;76.38;101287.94;5058676;28;66572;-31
2024/02/21 02:47:01;;;;;;;7.50;6.90;;;;;;;30.68;75.99;101286.88;5060642;28;69563;-31
2024/02/21 02:49:32;;;;;;;9.43;7.18;;;;;;;30.74;76.36;101282.50;5057955;28;66020;-31
2024/02/21 02:52:02;;;;;;;6.97;6.25;;;;;;;30.76;75.85;101284.97;5039643;28;70388;-32
2024/02/21 02:54:33;;;;;;;7.20;6.60;;;;;;;30.74;75.81;101279.78;5043570;28;66155;-32
2024/02/21 02:57:05;;;;;;;7.05;6.32;;;;;;;30.82;75.82;101286.91;5054952;28;70386;-32
2024/02/21 02:59:35;;;;;;;;;;;;;;;30.73;76.89;101289.78;5049695;28;66470;-32
2024/02/21 03:02:05;;;;;;;6.75;6.03;;;;;;;30.88;75.52;101288.75;5052629;28;70286;-31
2024/02/21 03:04:35;;;;;;;6.93;6.20;;;;;;;30.90;75.74;101286.69;5054226;28;65529;-32
2024/02/21 03:07:07;;;;;;;9.25;5.95;;;;;;;30.93;75.38;101283.53;5045657;28;69661;-31
2024/02/21 03:09:42;;;;;;;6.77;6.17;;;;;;;30.92;75.54;101274.59;5048866;28;66206;-32
2024/02/21 03:12:18;;;;;;;7.43;5.75;;;;;;;30.96;74.86;101272.28;5055586;28;70033;-31
2024/02/21 03:14:49;;;;;;;6.57;5.97;;;;;;;31.00;74.89;101270.81;5048415;28;66351;-32
2024/02/21 03:17:19;;;;;;;6.60;6.20;;;;;;;31.04;74.92;101268.53;5043802;28;69324;-32
2024/02/21 03:19:50;;;;;;;6.78;6.28;;;;;;;30.94;75.03;101248.09;5044159;28;66556;-32
2024/02/21 03:22:20;;;;;;;9.57;6.50;;;;;;;31.09;74.71;101269.56;5047437;28;70304;-37
2024/02/21 03:24:51;;;;;;;6.20;5.80;;;;;;;31.11;74.89;101256.59;5058597;28;66520;-33
2024/02/21 03:27:21;;;;;;;6.68;6.22;;;;;;;31.03;74.68;101237.88;5046468;28;70223;-31
2024/02/21 03:29:52;;;;;;;7.68;6.13;;;;;;;31.18;74.38;101251.19;5054488;28;66288;-32
2024/02/21 03:32:22;;;;;;;6.70;6.10;;;;;;;31.21;74.62;101239.91;5055651;28;70323;-31
2024/02/21 03:34:53;;;;;;;6.78;6.38;;;;;;;31.25;74.32;101235.69;5054213;28;66115;-33
2024/02/21 03:37:23;;;;;;;6.65;6.20;;;;;;;31.28;74.33;101239.88;5054323;28;69398;-33
2024/02/21 03:39:54;;;;;;;6.72;6.13;;;;;;;31.30;74.19;101233.19;5042894;28;65766;-32
2024/02/21 03:42:25;;;;;;;7.30;6.70;;;;;;;31.32;74.35;101230.28;5037133;28;70377;-31
2024/02/21 03:44:56;;;;;;;5.78;5.47;;;;;;;31.32;74.15;101227.56;5043667;28;66016;-32
2024/02/21 03:47:27;;;;;;;6.75;6.15;;;;;;;31.40;73.84;101227.34;5041034;28;69718;-32
2024/02/21 03:49:59;;;;;;;6.03;5.72;;;;;;;31.43;74.00;101216.06;5058265;28;65737;-36
2024/02/21 03:52:30;;;;;;;6.80;6.20;;;;;;;31.45;73.89;101208.53;5058627;28;70579;-31
2024/02/21 03:55:00;;;;;;;6.40;5.80;;;;;;;31.50;73.99;101213.31;5058738;28;66346;-32
2024/02/21 03:57:31;;;;;;;6.68;6.18;;;;;;;31.51;73.81;101207.69;5048097;28;69770;-32
2024/02/21 04:00:03;;;;;;;6.95;6.35;;;;;;;31.56;73.55;101191.56;5046575;28;65720;-31
2024/02/21 04:02:35;;;;;;;6.22;5.72;;;;;;;31.55;73.34;101187.22;5044972;28;70489;-31
2024/02/21 04:05:05;;;;;;;6.50;6.03;;;;;;;31.63;73.40;101182.59;5040558;28;65896;-31
2024/02/21 04:07:37;;;;;;;6.35;5.85;;;;;;;31.66;73.14;101176.72;5047177;27;70146;-32
2024/02/21 04:10:08;;;;;;;6.88;6.45;;;;;;;31.69;73.47;101176.28;5053767;28;66228;-31
2024/02/21 04:12:39;;;;;;;6.07;5.65;;;;;;;31.71;73.15;101174.19;5057210;28;70476;-32
2024/02/21 04:15:09;;;;;;;6.82;6.05;;;;;;;31.72;73.32;101159.56;5049829;28;66297;-31
2024/02/21 04:17:40;;;;;;;6.38;5.97;;;;;;;31.78;73.29;101150.56;5051681;28;69743;-33
2024/02/21 04:20:15;;;;;;;6.70;6.03;;;;;;;31.68;72.86;101126.66;5051584;28;66186;-31
2024/02/21 04:22:46;;;;;;;6.93;6.35;;;;;;;31.87;72.75;101143.78;5058037;28;69546;-32
2024/02/21 04:25:17;;;;;;;7.20;6.35;;;;;;;31.85;72.79;101126.94;5055128;28;66702;-31
2024/02/21 04:27:47;;;;;;;7.10;6.60;;;;;;;31.92;72.95;101126.91;5047600;28;69766;-33
2024/02/21 04:30:18;;;;;;;6.47;5.88;;;;;;;31.94;72.52;101131.06;5046065;28;66741;-31
2024/02/21 04:32:48;;;;;;;6.68;6.20;;;;;;;31.96;72.41;101123.53;5045603;28;70496;-31
2024/02/21 04:35:19;;;;;;;6.55;6.05;;;;;;;32.00;72.63;101113.88;5053049;28;66438;-32
2024/02/21 04:37:50;;;;;;;6.35;5.95;;;;;;;32.03;72.46;101118.03;5052599;27;70328;-31
2024/02/21 04:40:21;;;;;;;6.73;6.23;;;;;;;32.04;72.29;101109.69;5046382;28;65637;-32
2024/02/21 04:42:51;;;;;;;6.07;5.68;;;;;;;32.09;72.25;101108.16;5044007;28;70495;-32
2024/02/21 04:45:22;;;;;;;7.13;6.53;;;;;;;32.10;72.14;101096.28;5048243;28;65917;-32
2024/02/21 04:47:52;;;;;;;11.23;6.15;;;;;;;32.13;72.05;101102.09;5054377;28;69637;-32
2024/02/21 04:50:23;;;;;;;6.55;5.93;;;;;;;32.17;71.90;101097.84;5049393;28;65985;-32
2024/02/21 04:52:53;;;;;;;6.28;5.78;;;;;;;32.20;72.06;101096.59;5047778;28;69793;-32
2024/02/21 04:55:24;;;;;;;6.20;5.80;;;;;;;32.22;71.88;101083.63;5040131;28;66755;-31
2024/02/21 04:57:54;;;;;;;6.68;6.00;;;;;;;32.24;71.69;101081.53;5052539;28;70541;-32
2024/02/21 05:00:25;;;;;;;5.53;5.13;;;;;;;32.27;71.69;101078.34;5047899;28;65883;-32
2024/02/21 05:02:55;;;;;;;6.70;5.97;;;;;;;32.30;71.96;101080.63;5057124;28;70868;-32
2024/02/21 05:05:26;;;;;;;6.00;5.57;;;;;;;32.27;71.66;101076.47;5050186;28;65628;-33
2024/02/21 05:07:57;;;;;;;5.57;5.18;;;;;;;32.32;71.80;101064.94;5054020;28;69935;-32
2024/02/21 05:10:27;;;;;;;5.78;5.35;;;;;;;32.38;71.86;101066.75;5051673;28;66197;-32
2024/02/21 05:12:58;;;;;;;5.60;5.13;;;;;;;32.40;71.53;101069.22;5054697;28;70437;-31
2024/02/21 05:15:29;;;;;;;5.70;5.20;;;;;;;32.29;71.18;101038.25;5047853;28;65274;-31
2024/02/21 05:17:59;;;;;;;5.50;5.20;;;;;;;32.47;71.21;101054.53;5053027;28;69546;-32
2024/02/21 05:20:30;;;;;;;6.13;5.63;;;;;;;32.42;71.33;101034.53;5051929;28;66292;-32
2024/02/21 05:23:01;;;;;;;4.72;4.40;;;;;;;32.47;71.29;101037.44;5040192;28;69812;-31
2024/02/21 05:25:32;;;;;;;5.80;5.20;;;;;;;32.54;71.17;101043.63;5039640;28;66177;-30
2024/02/21 05:28:03;;;;;;;5.55;5.15;;;;;;;32.54;71.18;101026.47;5041910;28;70337;-33
2024/02/21 05:30:33;;;;;;;9.10;5.25;;;;;;;32.57;71.15;101026.00;5038254;28;66720;-31
2024/02/21 05:33:07;;;;;;;6.07;5.05;;;;;;;32.60;71.07;101031.00;5040504;28;70753;-31
2024/02/21 05:35:38;;;;;;;5.32;4.93;;;;;;;32.62;70.92;101018.00;5044973;28;65795;-32
2024/02/21 05:38:11;;;;;;;5.38;4.97;;;;;;;32.65;71.06;101017.56;5043684;28;70457;-31
2024/02/21 05:40:41;;;;;;;4.85;4.50;;;;;;;32.67;70.96;101015.44;5039647;28;66444;-32
2024/02/21 05:43:12;;;;;;;5.03;4.70;;;;;;;32.67;70.83;101007.31;5047013;28;70362;-32
2024/02/21 05:45:43;;;;;;;5.70;5.30;;;;;;;32.69;70.89;101007.91;5051410;28;66759;-32
2024/02/21 05:48:14;;;;;;;5.65;4.75;;;;;;;32.72;70.85;101007.44;5043799;28;69745;-33
2024/02/21 05:50:44;;;;;;;5.18;4.78;;;;;;;32.73;70.86;101003.66;5048827;28;67137;-31
2024/02/21 05:53:14;;;;;;;6.20;4.60;;;;;;;32.76;70.85;101003.19;5054071;28;70550;-31
2024/02/21 05:55:45;;;;;;;5.22;4.82;;;;;;;32.78;70.74;100990.22;5054863;28;66153;-31
2024/02/21 05:58:16;;;;;;;4.40;4.15;;;;;;;32.73;70.90;100965.63;5054490;28;69401;-33
2024/02/21 06:00:46;;;;;;;5.18;4.68;;;;;;;32.84;70.71;100972.16;5051774;28;67165;-32
2024/02/21 06:03:16;;;;;;;7.30;4.93;;;;;;;32.85;70.69;100973.84;5057362;28;70506;-34
2024/02/21 06:05:47;;;;;;;4.97;4.55;;;;;;;32.87;70.68;100961.66;5052152;28;65887;-31
2024/02/21 06:08:17;;;;;;;4.65;4.32;;;;;;;32.85;70.62;100947.50;5053236;28;69974;-33
2024/02/21 06:10:48;;;;;;;4.95;4.60;;;;;;;32.87;70.57;100942.63;5062441;28;66866;-33
2024/02/21 06:13:18;;;;;;;5.00;4.20;;;;;;;32.92;70.31;100944.66;5058304;28;70185;-33
2024/02/21 06:15:50;;;;;;;4.65;4.35;;;;;;;32.93;70.73;100933.56;5059202;28;66524;-33
2024/02/21 06:18:21;;;;;;;5.00;4.60;;;;;;;32.94;70.47;100939.84;5048499;28;69052;-31
2024/02/21 06:20:51;;;;;;;5.07;4.67;;;;;;;32.79;70.16;100904.97;5052784;28;68296;-32
2024/02/21 06:23:22;;;;;;;5.25;4.90;;;;;;;32.97;70.50;100922.25;5065290;28;70338;-32
2024/02/21 06:25:52;;;;;;;5.05;4.55;;;;;;;33.04;70.17;100923.81;5050685;28;66268;-32
2024/02/21 06:28:23;;;;;;;4.50;4.15;;;;;;;33.06;70.31;100907.25;5054657;28;70536;-31
2024/02/21 06:30:54;;;;;;;4.85;4.50;;;;;;;33.10;70.49;100911.19;5060760;28;66267;-31
2024/02/21 06:33:24;;;;;;;5.03;4.63;;;;;;;33.11;70.22;100904.69;5053551;28;69946;-34
2024/02/21 06:35:56;;;;;;;5.38;4.85;;;;;;;33.12;70.36;100892.72;5055744;28;66811;-31
2024/02/21 06:38:27;;;;;;;4.57;4.28;;;;;;;33.15;70.17;100889.53;5054253;28;69983;-32
2024/02/21 06:40:58;;;;;;;4.90;4.50;;;;;;;33.19;70.44;100888.03;5057996;28;65695;-32
2024/02/21 06:43:29;;;;;;;4.85;4.38;;;;;;;33.22;70.10;100876.66;5057858;28;70293;-32
2024/02/21 06:46:00;;;;;;;4.75;4.45;;;;;;;33.24;70.28;100877.28;5059800;28;66063;-31
2024/02/21 06:48:30;;;;;;;4.93;4.63;;;;;;;33.24;70.10;100874.56;5059604;28;70566;-31
2024/02/21 06:51:01;;;;;;;4.78;4.38;;;;;;;33.28;69.93;100864.84;5042136;28;66341;-33
2024/02/21 06:53:32;;;;;;;9.37;4.80;;;;;;;33.29;69.88;100855.66;5049772;28;70500;-33
2024/02/21 06:56:03;;;;;;;5.00;4.60;;;;;;;33.32;69.95;100852.44;5068368;28;66094;-32
2024/02/21 06:58:34;;;;;;;4.30;4.00;;;;;;;33.34;69.94;100853.00;5040446;28;70269;-32
2024/02/21 07:01:04;;;;;;;4.20;3.90;;;;;;;33.32;69.99;100838.84;5055679;28;66635;-32
2024/02/21 07:03:35;;;;;;;4.22;3.92;;;;;;;33.40;69.81;100845.78;5042071;28;70153;-32
2024/02/21 07:06:05;;;;;;;3.97;3.67;;;;;;;33.42;69.83;100838.22;5040687;28;66766;-32
2024/02/21 07:08:37;;;;;;;4.87;3.90;;;;;;;33.45;69.70;100842.38;5043924;28;70195;-32
2024/02/21 07:11:08;;;;;;;4.18;3.85;;;;;;;33.47;69.90;100832.91;5051215;28;65934;-32
2024/02/21 07:13:38;;;;;;;4.53;4.13;;;;;;;33.46;69.65;100827.69;5045969;28;70792;-33
2024/02/21 07:16:09;;;;;;;4.72;4.03;;;;;;;33.52;69.43;100826.75;5056432;28;65789;-31
2024/02/21 07:18:39;;;;;;;4.38;4.05;;;;;;;33.46;69.80;100811.38;5047850;28;70651;-32
2024/02/21 07:21:10;;;;;;;3.85;3.65;;;;;;;33.50;69.43;100807.94;5040016;28;66868;-38
2024/02/21 07:23:43;;;;;;;3.78;3.47;;;;;;;33.60;69.42;100812.81;5053454;28;70203;-33
2024/02/21 07:26:14;;;;;;;3.85;3.65;;;;;;;33.62;69.34;100810.66;5039850;28;66312;-32
2024/02/21 07:28:44;;;;;;;4.50;4.20;;;;;;;33.64;69.62;100808.53;5058948;28;70244;-32
2024/02/21 07:31:15;;;;;;;4.10;3.88;;;;;;;33.63;69.12;100801.47;5048175;28;65996;-31
2024/02/21 07:33:45;;;;;;;4.63;4.22;;;;;;;33.68;69.45;100804.25;5040640;28;70213;-32
2024/02/21 07:36:24;;;;;;;3.70;3.50;;;;;;;33.71;69.25;100797.50;5055826;28;66542;-32
2024/02/21 07:38:55;;;;;;;4.93;3.90;;;;;;;33.71;69.31;100792.91;5064547;28;70020;-32
2024/02/21 07:41:30;;;;;;;4.20;3.83;;;;;;;33.76;69.17;100789.47;5054369;28;66268;-33
2024/02/21 07:44:01;;;;;;;4.18;3.88;;;;;;;33.78;69.26;100779.97;5047761;28;69541;-33
2024/02/21 07:46:32;;;;;;;4.55;4.13;;;;;;;33.80;69.36;100780.56;5043128;28;65246;-32
2024/02/21 07:49:02;;;;;;;4.35;3.85;;;;;;;33.86;69.27;100783.41;5047376;28;69162;-31
2024/02/21 07:51:33;;;;;;;4.95;3.75;;;;;;;33.90;69.07;100779.09;5058033;28;66039;-32
2024/02/21 07:54:04;;;;;;;4.13;3.67;;;;;;;33.94;69.01;100780.28;5047971;28;70194;-31
2024/02/21 07:56:34;;;;;;;3.92;3.53;;;;;;;33.97;69.07;100777.06;5036539;28;65362;-34
2024/02/21 07:59:05;;;;;;;3.83;3.45;;;;;;;33.93;68.93;100771.28;5052557;28;71035;-32
2024/02/21 08:01:35;;;;;;;4.15;3.72;;;;;;;34.02;68.93;100772.56;5054069;28;66238;-33
2024/02/21 08:04:06;;;;;;;3.95;3.65;;;;;;;34.07;69.05;100784.63;5056420;28;69746;-33
2024/02/21 08:06:37;;;;;;;3.70;3.40;;;;;;;34.05;68.82;100771.28;5056266;28;66922;-32
2024/02/21 08:09:07;;;;;;;3.92;3.45;;;;;;;34.14;68.96;100783.41;5056471;28;70099;-32
2024/02/21 08:11:39;;;;;;;3.95;3.65;;;;;;;34.18;68.85;100786.44;5059131;28;66197;-32
2024/02/21 08:14:09;;;;;;;;;;;;;;;34.17;68.61;100779.38;5058674;28;70328;-32
2024/02/21 08:16:39;;;;;;;3.90;3.47;;;;;;;34.28;68.55;100780.38;5049322;28;66593;-33
2024/02/21 08:19:10;;;;;;;3.22;3.03;;;;;;;34.30;69.05;100772.75;5047457;28;69878;-33
2024/02/21 08:21:41;;;;;;;4.80;3.97;;;;;;;34.35;68.61;100775.56;5059443;28;65950;-32
2024/02/21 08:24:11;;;;;;;3.88;3.58;;;;;;;34.39;68.44;100771.31;5046842;28;70685;-32
2024/02/21 08:26:44;;;;;;;4.00;3.65;;;;;;;34.41;68.33;100777.34;5039633;28;66457;-32
2024/02/21 08:29:15;;;;;;;4.18;3.58;;;;;;;34.47;68.38;100784.50;5039300;28;69407;-31
2024/02/21 08:31:45;;;;;;;3.80;3.50;;;;;;;34.49;68.39;100776.91;5039091;28;65899;-33
2024/02/21 08:34:16;;;;;;;3.08;2.88;;;;;;;34.54;68.48;100776.97;5041205;28;70278;-31
2024/02/21 08:36:46;;;;;;;4.07;3.78;;;;;;;34.57;68.31;100778.41;5042391;28;66526;-33
2024/02/21 08:39:17;;;;;;;4.07;3.72;;;;;;;34.63;68.13;100783.72;5045234;28;70363;-32
2024/02/21 08:41:47;;;;;;;3.72;3.42;;;;;;;34.67;68.44;100784.84;5046645;28;66676;-32
2024/02/21 08:44:28;;;;;;;4.18;3.67;;;;;;;34.69;68.46;100777.28;5069111;28;69164;-32
2024/02/21 08:46:59;;;;;;;4.82;3.78;;;;;;;34.78;68.42;100774.13;5051823;28;66546;-33
2024/02/21 08:49:31;;;;;;;3.95;3.63;;;;;;;34.82;68.02;100781.53;5050510;28;69857;-33
2024/02/21 08:52:03;;;;;;;4.00;3.60;;;;;;;34.88;68.38;100771.53;5038945;28;66462;-33
2024/02/21 08:54:34;;;;;;;4.20;3.83;;;;;;;34.91;68.25;100768.34;5065081;28;70389;-34
2024/02/21 08:57:04;;;;;;;3.97;3.50;;;;;;;34.97;67.85;100777.41;5042534;28;66712;-34
2024/02/21 08:59:35;;;;;;;5.10;3.90;;;;;;;35.02;67.99;100777.44;5045199;28;70124;-34
2024/02/21 09:02:07;;;;;;;3.42;3.13;;;;;;;35.07;67.92;100775.66;5048942;28;66280;-32
2024/02/21 09:04:37;;;;;;;3.25;3.05;;;;;;;35.09;67.79;100772.69;5054192;28;70175;-33
2024/02/21 09:07:08;;;;;;;3.95;3.17;;;;;;;35.14;67.95;100781.75;5045451;28;65906;-33
2024/02/21 09:09:39;;;;;;;5.43;3.20;;;;;;;35.21;67.74;100778.84;5052828;28;70209;-33
2024/02/21 09:12:10;;;;;;;3.47;3.17;;;;;;;35.26;67.65;100775.38;5048180;28;66410;-33
2024/02/21 09:14:40;;;;;;;4.78;3.45;;;;;;;35.31;67.32;100787.16;5051243;28;70904;-32
2024/02/21 09:17:12;;;;;;;3.20;2.90;;;;;;;35.36;66.96;100791.88;5050923;28;66532;-33
2024/02/21 09:19:42;;;;;;;4.80;3.30;;;;;;;35.27;67.47;100782.47;5053784;28;69713;-32
2024/02/21 09:22:13;;;;;;;4.40;3.45;;;;;;;35.25;68.14;100784.63;5055631;28;66603;-32
2024/02/21 09:24:45;;;;;;;4.47;3.60;;;;;;;35.29;68.05;100789.31;5049799;28;70793;-33
2024/02/21 09:27:15;;;;;;;4.28;3.28;;;;;;;35.31;68.42;100789.06;5058041;28;66710;-32
2024/02/21 09:29:45;;;;;;;7.82;3.50;;;;;;;35.35;68.11;100787.47;5059233;28;70527;-32
2024/02/21 09:32:16;;;;;;;4.70;3.70;;;;;;;35.30;68.45;100787.41;5059066;28;65728;-33
2024/02/21 09:34:46;;;;;;;3.80;3.33;;;;;;;35.37;67.59;100790.78;5061913;28;70902;-32
2024/02/21 09:37:17;;;;;;;5.37;3.63;;;;;;;35.35;67.39;100790.19;5054366;28;66733;-33
2024/02/21 09:39:48;;;;;;;3.22;2.92;;;;;;;35.47;67.34;100793.66;5058158;28;69901;-33
2024/02/21 09:42:24;;;;;;;4.18;3.70;;;;;;;35.47;67.17;100804.56;5040497;28;66399;-32
2024/02/21 09:44:54;;;;;;;4.00;3.42;;;;;;;35.46;67.14;100789.25;5055234;28;70036;-33
2024/02/21 09:47:40;;;;;;;4.30;3.90;;;;;;;35.04;67.70;100740.69;5048259;28;65617;-31
2024/02/21 09:50:11;;;;;;;4.45;3.90;;;;;;;35.50;67.66;100803.22;5050346;28;69818;-34
2024/02/21 09:52:43;;;;;;;5.10;3.97;;;;;;;35.54;67.33;100807.91;5044561;28;66533;-32
2024/02/21 09:55:14;;;;;;;4.88;3.83;;;;;;;35.53;67.03;100797.25;5052761;28;68648;-33
2024/02/21 09:57:45;;;;;;;4.57;3.83;;;;;;;35.54;67.44;100810.63;5054715;28;66433;-32
2024/02/21 10:00:21;;;;;;;4.17;3.77;;;;;;;35.61;67.89;100809.63;5057168;28;69953;-32
2024/02/21 10:02:52;;;;;;;4.07;3.67;;;;;;;35.62;67.49;100823.03;5053027;28;67129;-33
2024/02/21 10:05:24;;;;;;;7.20;3.72;;;;;;;35.55;67.68;100806.84;5057140;28;69503;-33
2024/02/21 10:07:56;;;;;;;9.85;3.90;;;;;;;35.45;67.05;100787.59;5055676;28;66441;-32
2024/02/21 10:10:27;;;;;;;3.55;3.25;;;;;;;35.71;67.78;100831.59;5049378;28;70258;-32
2024/02/21 10:12:58;;;;;;;6.90;4.10;;;;;;;35.80;67.48;100825.44;5050540;28;66559;-32
2024/02/21 10:15:29;;;;;;;4.45;3.50;;;;;;;35.84;66.96;100831.22;5042935;28;69935;-32
2024/02/21 10:18:00;;;;;;;5.72;4.15;;;;;;;35.86;66.87;100823.59;5047590;28;65262;-32
2024/02/21 10:20:31;;;;;;;5.93;3.50;;;;;;;35.87;67.10;100833.44;5046650;28;70361;-31
2024/02/21 10:23:07;;;;;;;4.47;4.07;;;;;;;35.89;66.56;100828.53;5051980;28;65606;-32
2024/02/21 10:25:41;;;;;;;4.70;4.05;;;;;;;35.89;67.28;100831.28;5045429;28;70338;-33
2024/02/21 10:28:17;;;;;;;4.82;3.63;;;;;;;35.66;66.34;100801.53;5054413;28;66641;-32
2024/02/21 10:30:52;;;;;;;5.75;3.60;;;;;;;35.86;66.88;100842.72;5051272;28;69527;-33
2024/02/21 10:33:24;;;;;;;7.50;3.40;;;;;;;35.88;66.85;100843.25;5060648;28;65628;-32
2024/02/21 10:35:55;;;;;;;4.68;3.75;;;;;;;35.84;66.55;100838.59;5059096;28;69982;-32
2024/02/21 10:38:25;;;;;;;4.32;3.70;;;;;;;35.91;67.25;100847.38;5052723;28;65811;-41
2024/02/21 10:40:58;;;;;;;5.30;3.72;;;;;;;35.79;67.06;100847.53;5042574;28;70067;-31
2024/02/21 10:43:34;;;;;;;6.28;4.03;;;;;;;35.73;67.51;100851.28;5050595;28;66933;-32
2024/02/21 10:46:08;;;;;;;5.45;4.47;;;;;;;35.68;67.41;100859.41;5053987;28;69663;-31
2024/02/21 10:48:47;;;;;;;7.50;4.22;;;;;;;35.37;67.76;100828.97;5052974;28;65975;-33
2024/02/21 10:51:27;;;;;;;8.05;4.43;;;;;;;35.58;68.31;100866.38;5058166;28;70303;-31
2024/02/21 10:54:29;;;;;;;14.30;5.97;;;;;;;35.52;67.91;100866.53;5043680;28;66491;-33
2024/02/21 10:57:03;;;;;;;20.42;7.80;;;;;;;35.47;68.44;100864.56;5044960;28;70170;-36
2024/02/21 10:59:35;;;;;;;19.02;9.40;;;;;;;35.46;68.42;100865.63;5053221;28;67260;-33
2024/02/21 11:02:05;;;;;;;;;;;;;;;35.35;69.10;100861.09;5043351;28;69862;-34
2024/02/21 11:04:37;;;;;;;28.63;9.55;;;;;;;35.22;68.78;100834.22;5046231;28;66051;-33
2024/02/21 11:07:09;;;;;;;28.38;9.38;;;;;;;35.31;69.34;100866.25;5053258;28;69538;-33
2024/02/21 11:09:39;;;;;;;;;;;;;;;35.26;69.89;100873.53;5060269;28;65472;-33
2024/02/21 11:12:11;;;;;;;20.02;10.02;;;;;;;35.30;69.87;100872.78;5053082;28;70726;-34
2024/02/21 11:14:42;;;;;;;27.88;10.70;;;;;;;35.30;70.86;100872.78;5055829;28;66174;-34
2024/02/21 11:17:21;;;;;;;41.57;11.20;;;;;;;35.27;70.59;100869.72;5058353;28;70239;-33
2024/02/21 11:19:51;;;;;;;34.03;11.05;;;;;;;35.24;70.71;100881.13;5055753;28;65694;-33
2024/02/21 11:22:24;;;;;;;29.02;9.93;;;;;;;35.20;71.38;100880.00;5059104;28;69940;-32
2024/02/21 11:24:55;;;;;;;21.90;8.68;;;;;;;35.19;71.53;100883.78;5058902;28;66200;-32
2024/02/21 11:27:26;;;;;;;20.20;8.67;;;;;;;35.10;71.17;100881.50;5057335;28;69421;-32
2024/02/21 11:29:59;;;;;;;9.98;7.78;;;;;;;35.06;71.87;100880.34;5045167;28;65656;-32
2024/02/21 11:32:31;;;;;;;24.92;9.07;;;;;;;34.95;72.01;100867.59;5041432;28;70717;-31
2024/02/21 11:35:04;;;;;;;19.02;8.05;;;;;;;34.88;71.25;100850.56;5056233;28;66372;-31
2024/02/21 11:37:37;;;;;;;15.50;7.90;;;;;;;34.96;72.05;100884.75;5048234;28;70356;-34
2024/02/21 11:40:10;;;;;;;14.35;7.95;;;;;;;34.89;72.64;100884.94;5044583;28;66312;-31
2024/02/21 11:42:41;;;;;;;20.50;7.30;;;;;;;34.87;72.07;100897.97;5045990;28;69849;-32